UAL4523 KDTW-KDFW
Flight info
| Callsign | UAL4523 |
|---|---|
| Flight time | 2h 23m |
| Altitude | 36000 |
| Route | SNDRS3 BGHRT STL RZC FSM RRNET SEEVR4 |
| Aircraft | B739/M-SDE2E3FGHIRWXY/LB1 |
Departure
| Time | 2026-05-04 05:29 |
|---|---|
| Airport | Detroit Metropolitan Wayne County Airport (KDTW) |
Arrival
| Time | 2026-05-04 07:52 |
|---|---|
| Airport | Dallas Fort Worth International Airport (KDFW) |
| Time | Latitude | Longitude | Altitude | Speed | Heading |
|---|---|---|---|---|---|
| 2026-05-04 05:13 | 42.22520 | -83.34965 | 645 ft | 0 kts | 108° |
| 2026-05-04 05:19 | 42.22522 | -83.34973 | 645 ft | 3 kts | 108° |
| 2026-05-04 05:19 | 42.22529 | -83.34998 | 647 ft | 3 kts | 119° |
| 2026-05-04 05:19 | 42.22539 | -83.35022 | 647 ft | 3 kts | 118° |
| 2026-05-04 05:19 | 42.22545 | -83.35037 | 647 ft | 1 kts | 118° |
| 2026-05-04 05:21 | 42.22535 | -83.35037 | 648 ft | 5 kts | 195° |
| 2026-05-04 05:21 | 42.22480 | -83.35100 | 647 ft | 14 kts | 223° |
| 2026-05-04 05:22 | 42.22395 | -83.35227 | 645 ft | 19 kts | 229° |
| 2026-05-04 05:22 | 42.22296 | -83.35341 | 647 ft | 19 kts | 218° |
| 2026-05-04 05:22 | 42.22185 | -83.35426 | 645 ft | 18 kts | 209° |
| 2026-05-04 05:22 | 42.22077 | -83.35506 | 645 ft | 17 kts | 209° |
| 2026-05-04 05:23 | 42.21969 | -83.35582 | 644 ft | 20 kts | 197° |
| 2026-05-04 05:23 | 42.21843 | -83.35514 | 645 ft | 20 kts | 137° |
| 2026-05-04 05:23 | 42.21823 | -83.35320 | 644 ft | 27 kts | 89° |
| 2026-05-04 05:23 | 42.21829 | -83.35018 | 645 ft | 34 kts | 89° |
| 2026-05-04 05:24 | 42.21835 | -83.34707 | 645 ft | 31 kts | 88° |
| 2026-05-04 05:24 | 42.21836 | -83.34430 | 646 ft | 29 kts | 88° |
| 2026-05-04 05:24 | 42.21845 | -83.34167 | 645 ft | 27 kts | 89° |
| 2026-05-04 05:24 | 42.21848 | -83.33920 | 645 ft | 25 kts | 89° |
| 2026-05-04 05:25 | 42.21864 | -83.33746 | 645 ft | 18 kts | 54° |
| 2026-05-04 05:25 | 42.21969 | -83.33662 | 646 ft | 17 kts | 27° |
| 2026-05-04 05:25 | 42.22012 | -83.33545 | 645 ft | 1 kts | 116° |
| 2026-05-04 05:27 | 42.22004 | -83.33523 | 645 ft | 10 kts | 117° |
| 2026-05-04 05:28 | 42.19794 | -83.35012 | 787 ft | 192 kts | 208° |
| 2026-05-04 05:29 | 42.18567 | -83.35886 | 1351 ft | 211 kts | 208° |
| 2026-05-04 05:29 | 42.17235 | -83.36868 | 2059 ft | 220 kts | 209° |
| 2026-05-04 05:29 | 42.15839 | -83.37805 | 2796 ft | 229 kts | 198° |
| 2026-05-04 05:29 | 42.14243 | -83.38356 | 3070 ft | 253 kts | 194° |
| 2026-05-04 05:31 | 42.02544 | -83.45575 | 8110 ft | 279 kts | 217° |
| 2026-05-04 05:31 | 42.00965 | -83.47132 | 8815 ft | 282 kts | 216° |
| 2026-05-04 05:32 | 41.99375 | -83.48692 | 9507 ft | 285 kts | 216° |
| 2026-05-04 05:32 | 41.97777 | -83.50290 | 10189 ft | 288 kts | 218° |
| 2026-05-04 05:32 | 41.96156 | -83.51960 | 10550 ft | 304 kts | 218° |
| 2026-05-04 05:33 | 41.92598 | -83.55649 | 10932 ft | 343 kts | 218° |
| 2026-05-04 05:33 | 41.90685 | -83.57629 | 11451 ft | 351 kts | 218° |
| 2026-05-04 05:33 | 41.88737 | -83.59640 | 12102 ft | 353 kts | 218° |
| 2026-05-04 05:33 | 41.86780 | -83.61657 | 12758 ft | 356 kts | 218° |
| 2026-05-04 05:34 | 41.84810 | -83.63685 | 13375 ft | 359 kts | 218° |
| 2026-05-04 05:34 | 41.82812 | -83.65740 | 13975 ft | 363 kts | 218° |
| 2026-05-04 05:34 | 41.80794 | -83.67813 | 14574 ft | 366 kts | 218° |
| 2026-05-04 05:34 | 41.78769 | -83.69891 | 15151 ft | 369 kts | 218° |
| 2026-05-04 05:35 | 41.76746 | -83.71966 | 15713 ft | 372 kts | 218° |
| 2026-05-04 05:35 | 41.74685 | -83.74080 | 16265 ft | 375 kts | 218° |
| 2026-05-04 05:35 | 41.72603 | -83.76211 | 16805 ft | 378 kts | 218° |
| 2026-05-04 05:35 | 41.70502 | -83.78360 | 17335 ft | 381 kts | 218° |
| 2026-05-04 05:36 | 41.68340 | -83.80433 | 17845 ft | 384 kts | 213° |
| 2026-05-04 05:36 | 41.66053 | -83.82315 | 18354 ft | 387 kts | 211° |
| 2026-05-04 05:36 | 41.63710 | -83.84139 | 18855 ft | 390 kts | 210° |
| 2026-05-04 05:36 | 41.61348 | -83.85962 | 19348 ft | 393 kts | 210° |
| 2026-05-04 05:37 | 41.58971 | -83.87813 | 19831 ft | 396 kts | 211° |
| 2026-05-04 05:37 | 41.56590 | -83.89687 | 20308 ft | 399 kts | 211° |
| 2026-05-04 05:37 | 41.54191 | -83.91592 | 20771 ft | 402 kts | 211° |
| 2026-05-04 05:38 | 41.49359 | -83.95449 | 21670 ft | 407 kts | 211° |
| 2026-05-04 05:38 | 41.46924 | -83.97395 | 22102 ft | 410 kts | 211° |
| 2026-05-04 05:38 | 41.44463 | -83.99362 | 22528 ft | 413 kts | 211° |
| 2026-05-04 05:38 | 41.41990 | -84.01335 | 22948 ft | 416 kts | 211° |
| 2026-05-04 05:39 | 41.39501 | -84.03320 | 23358 ft | 418 kts | 211° |
| 2026-05-04 05:39 | 41.34506 | -84.07296 | 24140 ft | 423 kts | 211° |
| 2026-05-04 05:39 | 41.31969 | -84.09314 | 24524 ft | 426 kts | 211° |
| 2026-05-04 05:40 | 41.26866 | -84.13430 | 25255 ft | 431 kts | 217° |
| 2026-05-04 05:40 | 41.24756 | -84.16254 | 25561 ft | 433 kts | 236° |
| 2026-05-04 05:40 | 41.23374 | -84.19800 | 25931 ft | 434 kts | 248° |
| 2026-05-04 05:41 | 41.22304 | -84.23453 | 26284 ft | 435 kts | 249° |
| 2026-05-04 05:41 | 41.21248 | -84.27128 | 27462 ft | 423 kts | 253° |
| 2026-05-04 05:41 | 41.20206 | -84.30729 | 28332 ft | 414 kts | 253° |
| 2026-05-04 05:41 | 41.19157 | -84.34317 | 28524 ft | 420 kts | 253° |
| 2026-05-04 05:42 | 41.18083 | -84.37952 | 28664 ft | 426 kts | 253° |
| 2026-05-04 05:42 | 41.16988 | -84.41617 | 28991 ft | 427 kts | 252° |
| 2026-05-04 05:42 | 41.15887 | -84.45275 | 29462 ft | 426 kts | 252° |
| 2026-05-04 05:42 | 41.14787 | -84.48919 | 29963 ft | 423 kts | 252° |
| 2026-05-04 05:43 | 41.13696 | -84.52531 | 30367 ft | 421 kts | 253° |
| 2026-05-04 05:43 | 41.12606 | -84.56139 | 30717 ft | 420 kts | 253° |
| 2026-05-04 05:43 | 41.11530 | -84.59699 | 31039 ft | 420 kts | 253° |
| 2026-05-04 05:45 | 41.06610 | -84.85379 | 33237 ft | 408 kts | 262° |
| 2026-05-04 05:45 | 41.05997 | -84.89058 | 33485 ft | 409 kts | 262° |
| 2026-05-04 05:47 | 41.01602 | -85.14732 | 33893 ft | 405 kts | 262° |
| 2026-05-04 05:47 | 41.00349 | -85.21999 | 33900 ft | 404 kts | 262° |
| 2026-05-04 05:48 | 40.99095 | -85.29229 | 33903 ft | 405 kts | 262° |
| 2026-05-04 05:48 | 40.97829 | -85.36492 | 33893 ft | 406 kts | 262° |
| 2026-05-04 05:49 | 40.96554 | -85.43785 | 33864 ft | 407 kts | 262° |
| 2026-05-04 05:49 | 40.95282 | -85.51039 | 33885 ft | 408 kts | 262° |
| 2026-05-04 05:51 | 40.90070 | -85.80462 | 33879 ft | 413 kts | 262° |
| 2026-05-04 05:52 | 40.88973 | -85.86601 | 33875 ft | 413 kts | 261° |
| 2026-05-04 05:52 | 40.87694 | -85.95229 | 33871 ft | 409 kts | 266° |
| 2026-05-04 05:54 | 40.84787 | -86.23688 | 33847 ft | 406 kts | 266° |
| 2026-05-04 05:55 | 40.83981 | -86.31059 | 33855 ft | 405 kts | 266° |
| 2026-05-04 05:55 | 40.83174 | -86.38392 | 33876 ft | 405 kts | 266° |
| 2026-05-04 05:56 | 40.82357 | -86.45768 | 33867 ft | 406 kts | 266° |
| 2026-05-04 05:56 | 40.81535 | -86.53155 | 33860 ft | 406 kts | 265° |
| 2026-05-04 05:57 | 40.80712 | -86.60503 | 33855 ft | 407 kts | 265° |
| 2026-05-04 05:57 | 40.79881 | -86.67885 | 33856 ft | 407 kts | 265° |
| 2026-05-04 05:58 | 40.79041 | -86.75300 | 33863 ft | 408 kts | 265° |
| 2026-05-04 05:58 | 40.78195 | -86.82724 | 33860 ft | 409 kts | 265° |
| 2026-05-04 05:59 | 40.77348 | -86.90110 | 33860 ft | 409 kts | 265° |
| 2026-05-04 05:59 | 40.76492 | -86.97530 | 33849 ft | 410 kts | 265° |
| 2026-05-04 06:00 | 40.75630 | -87.04965 | 33858 ft | 410 kts | 265° |
| 2026-05-04 06:00 | 40.74763 | -87.12396 | 33852 ft | 410 kts | 265° |
| 2026-05-04 06:01 | 40.73890 | -87.19832 | 33849 ft | 410 kts | 265° |
| 2026-05-04 06:03 | 40.70364 | -87.49465 | 33848 ft | 408 kts | 264° |
| 2026-05-04 06:05 | 40.66322 | -87.82651 | 33839 ft | 407 kts | 264° |
| 2026-05-04 06:06 | 40.65406 | -87.90008 | 33840 ft | 407 kts | 262° |
| 2026-05-04 06:06 | 40.64500 | -87.93564 | 33837 ft | 414 kts | 246° |
| 2026-05-04 06:06 | 40.62901 | -87.96686 | 33847 ft | 422 kts | 234° |
| 2026-05-04 06:07 | 40.58984 | -88.02470 | 33854 ft | 424 kts | 233° |
| 2026-05-04 06:07 | 40.55008 | -88.08214 | 33844 ft | 424 kts | 233° |
| 2026-05-04 06:08 | 40.51053 | -88.13983 | 33852 ft | 424 kts | 233° |
| 2026-05-04 06:08 | 40.47120 | -88.19762 | 33857 ft | 424 kts | 233° |
| 2026-05-04 06:09 | 40.43214 | -88.25507 | 33857 ft | 423 kts | 233° |
| 2026-05-04 06:11 | 40.27610 | -88.48364 | 33845 ft | 418 kts | 233° |
| 2026-05-04 06:13 | 40.12164 | -88.70818 | 33865 ft | 413 kts | 234° |
| 2026-05-04 06:14 | 39.98751 | -88.90174 | 33851 ft | 403 kts | 236° |
| 2026-05-04 06:15 | 39.95014 | -88.95543 | 33865 ft | 398 kts | 237° |
| 2026-05-04 06:15 | 39.91292 | -89.00893 | 33869 ft | 398 kts | 236° |
| 2026-05-04 06:16 | 39.87568 | -89.06236 | 33874 ft | 398 kts | 236° |
| 2026-05-04 06:16 | 39.83834 | -89.11580 | 33863 ft | 399 kts | 236° |
| 2026-05-04 06:17 | 39.80090 | -89.16928 | 33839 ft | 400 kts | 237° |
| 2026-05-04 06:17 | 39.76342 | -89.22269 | 33855 ft | 399 kts | 237° |
| 2026-05-04 06:18 | 39.72624 | -89.27559 | 33857 ft | 399 kts | 237° |
| 2026-05-04 06:20 | 39.57688 | -89.48719 | 33832 ft | 396 kts | 237° |
| 2026-05-04 06:21 | 39.48415 | -89.61787 | 33863 ft | 395 kts | 237° |
| 2026-05-04 06:22 | 39.44689 | -89.67024 | 33859 ft | 396 kts | 237° |
| 2026-05-04 06:25 | 39.18330 | -90.03805 | 33864 ft | 402 kts | 236° |
| 2026-05-04 06:26 | 39.14516 | -90.09090 | 33863 ft | 403 kts | 236° |
| 2026-05-04 06:26 | 39.10700 | -90.14367 | 33831 ft | 402 kts | 235° |
| 2026-05-04 06:27 | 39.01181 | -90.27499 | 33864 ft | 401 kts | 235° |
| 2026-05-04 06:28 | 38.97367 | -90.32746 | 33880 ft | 401 kts | 235° |
| 2026-05-04 06:28 | 38.93575 | -90.37954 | 33867 ft | 401 kts | 235° |
| 2026-05-04 06:29 | 38.89761 | -90.43184 | 33877 ft | 401 kts | 235° |
| 2026-05-04 06:29 | 38.85943 | -90.48410 | 33864 ft | 400 kts | 234° |
| 2026-05-04 06:30 | 38.82271 | -90.53698 | 33867 ft | 398 kts | 236° |
| 2026-05-04 06:30 | 38.78650 | -90.59078 | 33876 ft | 398 kts | 237° |
| 2026-05-04 06:31 | 38.75010 | -90.64465 | 33864 ft | 399 kts | 236° |
| 2026-05-04 06:31 | 38.71388 | -90.69791 | 33854 ft | 399 kts | 236° |
| 2026-05-04 06:33 | 38.56734 | -90.91178 | 33839 ft | 399 kts | 236° |
| 2026-05-04 06:34 | 38.53068 | -90.96506 | 33866 ft | 399 kts | 235° |
| 2026-05-04 06:34 | 38.49414 | -91.01806 | 33857 ft | 400 kts | 235° |
| 2026-05-04 06:36 | 38.34668 | -91.23109 | 33889 ft | 400 kts | 235° |
| 2026-05-04 06:37 | 38.30978 | -91.28417 | 33889 ft | 400 kts | 235° |
| 2026-05-04 06:37 | 38.27289 | -91.33714 | 33895 ft | 399 kts | 235° |
| 2026-05-04 06:38 | 38.23624 | -91.38970 | 33885 ft | 399 kts | 235° |
| 2026-05-04 06:40 | 38.08923 | -91.59963 | 33895 ft | 397 kts | 234° |
| 2026-05-04 06:40 | 38.05234 | -91.65209 | 33897 ft | 398 kts | 234° |
| 2026-05-04 06:41 | 38.01532 | -91.70467 | 33896 ft | 399 kts | 234° |
| 2026-05-04 06:41 | 37.98451 | -91.74834 | 33903 ft | 400 kts | 234° |
| 2026-05-04 06:42 | 37.94126 | -91.80956 | 33888 ft | 401 kts | 234° |
| 2026-05-04 06:44 | 37.79797 | -92.01152 | 33881 ft | 403 kts | 234° |
| 2026-05-04 06:44 | 37.76031 | -92.06440 | 33878 ft | 404 kts | 234° |
| 2026-05-04 06:45 | 37.72287 | -92.11687 | 33879 ft | 404 kts | 234° |
| 2026-05-04 06:45 | 37.68515 | -92.16965 | 33861 ft | 404 kts | 234° |
| 2026-05-04 06:46 | 37.64739 | -92.22239 | 33873 ft | 405 kts | 234° |
| 2026-05-04 06:46 | 37.60963 | -92.27506 | 33886 ft | 404 kts | 234° |
| 2026-05-04 06:48 | 37.45874 | -92.48465 | 33906 ft | 403 kts | 234° |
| 2026-05-04 06:50 | 37.30864 | -92.69181 | 33896 ft | 399 kts | 233° |
| 2026-05-04 06:51 | 37.27115 | -92.74334 | 33911 ft | 399 kts | 233° |
| 2026-05-04 06:51 | 37.23375 | -92.79467 | 33908 ft | 399 kts | 233° |
| 2026-05-04 06:52 | 37.19624 | -92.84608 | 33892 ft | 398 kts | 233° |
| 2026-05-04 06:52 | 37.15902 | -92.89702 | 33914 ft | 398 kts | 233° |
| 2026-05-04 06:53 | 37.12151 | -92.94825 | 33914 ft | 398 kts | 233° |
| 2026-05-04 06:53 | 37.08398 | -92.99943 | 33920 ft | 399 kts | 233° |
| 2026-05-04 06:54 | 37.04652 | -93.05045 | 33916 ft | 400 kts | 233° |
| 2026-05-04 06:54 | 37.00881 | -93.10172 | 33912 ft | 400 kts | 232° |
| 2026-05-04 06:55 | 36.97096 | -93.15309 | 33926 ft | 401 kts | 232° |
| 2026-05-04 06:55 | 36.93327 | -93.20417 | 33917 ft | 402 kts | 232° |
| 2026-05-04 06:57 | 36.78070 | -93.41013 | 33952 ft | 406 kts | 232° |
| 2026-05-04 06:58 | 36.74220 | -93.46189 | 33955 ft | 406 kts | 232° |
| 2026-05-04 06:58 | 36.70368 | -93.51361 | 33950 ft | 407 kts | 232° |
| 2026-05-04 06:59 | 36.66542 | -93.56488 | 33946 ft | 406 kts | 232° |
| 2026-05-04 06:59 | 36.62698 | -93.61633 | 33941 ft | 406 kts | 232° |
| 2026-05-04 07:01 | 36.47320 | -93.82134 | 33950 ft | 405 kts | 232° |
| 2026-05-04 07:02 | 36.43465 | -93.87253 | 33933 ft | 404 kts | 232° |
| 2026-05-04 07:02 | 36.39621 | -93.92349 | 33962 ft | 404 kts | 232° |
| 2026-05-04 07:03 | 36.35783 | -93.97432 | 33985 ft | 404 kts | 232° |
| 2026-05-04 07:03 | 36.31931 | -94.02525 | 33978 ft | 404 kts | 232° |
| 2026-05-04 07:04 | 36.28099 | -94.07582 | 33979 ft | 404 kts | 232° |
| 2026-05-04 07:04 | 36.25988 | -94.09936 | 33933 ft | 413 kts | 220° |
| 2026-05-04 07:04 | 36.23462 | -94.11698 | 33966 ft | 420 kts | 210° |
| 2026-05-04 07:05 | 36.20678 | -94.12920 | 33945 ft | 430 kts | 199° |
| 2026-05-04 07:05 | 36.17701 | -94.13536 | 33963 ft | 434 kts | 195° |
| 2026-05-04 07:05 | 36.11727 | -94.14513 | 33952 ft | 436 kts | 194° |
| 2026-05-04 07:06 | 36.02691 | -94.16013 | 33990 ft | 437 kts | 195° |
| 2026-05-04 07:07 | 35.96654 | -94.17065 | 33991 ft | 438 kts | 195° |
| 2026-05-04 07:09 | 35.72491 | -94.21300 | 33968 ft | 438 kts | 195° |
| 2026-05-04 07:09 | 35.66438 | -94.22356 | 33951 ft | 439 kts | 195° |
| 2026-05-04 07:10 | 35.60412 | -94.23407 | 33965 ft | 440 kts | 195° |
| 2026-05-04 07:12 | 35.36791 | -94.29489 | 33990 ft | 414 kts | 221° |
| 2026-05-04 07:12 | 35.32493 | -94.33919 | 33994 ft | 406 kts | 229° |
| 2026-05-04 07:13 | 35.28288 | -94.38566 | 33991 ft | 408 kts | 229° |
| 2026-05-04 07:13 | 35.24050 | -94.43200 | 33997 ft | 409 kts | 229° |
| 2026-05-04 07:14 | 35.13366 | -94.54759 | 34008 ft | 410 kts | 229° |
| 2026-05-04 07:15 | 35.09113 | -94.59345 | 34004 ft | 409 kts | 230° |
| 2026-05-04 07:15 | 35.04841 | -94.63945 | 34012 ft | 409 kts | 230° |
| 2026-05-04 07:16 | 35.00575 | -94.68535 | 34016 ft | 407 kts | 230° |
| 2026-05-04 07:16 | 34.96314 | -94.73109 | 33981 ft | 407 kts | 230° |
| 2026-05-04 07:17 | 34.92089 | -94.77640 | 33984 ft | 407 kts | 230° |
| 2026-05-04 07:17 | 34.87848 | -94.82184 | 33971 ft | 406 kts | 231° |
| 2026-05-04 07:18 | 34.83601 | -94.86721 | 33982 ft | 406 kts | 230° |
| 2026-05-04 07:18 | 34.79280 | -94.91173 | 33989 ft | 407 kts | 229° |
| 2026-05-04 07:19 | 34.77099 | -94.93399 | 33762 ft | 412 kts | 229° |
| 2026-05-04 07:19 | 34.74930 | -94.95605 | 33510 ft | 411 kts | 229° |
| 2026-05-04 07:19 | 34.72737 | -94.97830 | 33270 ft | 409 kts | 229° |
| 2026-05-04 07:19 | 34.70525 | -95.00077 | 33017 ft | 410 kts | 229° |
| 2026-05-04 07:20 | 34.68367 | -95.02272 | 32767 ft | 411 kts | 229° |
| 2026-05-04 07:20 | 34.66173 | -95.04504 | 32506 ft | 412 kts | 228° |
| 2026-05-04 07:20 | 34.63973 | -95.06741 | 32253 ft | 413 kts | 228° |
| 2026-05-04 07:20 | 34.61764 | -95.08986 | 31976 ft | 414 kts | 228° |
| 2026-05-04 07:22 | 34.46133 | -95.24824 | 30280 ft | 423 kts | 226° |
| 2026-05-04 07:22 | 34.43895 | -95.27085 | 30007 ft | 425 kts | 226° |
| 2026-05-04 07:23 | 34.41616 | -95.29385 | 29702 ft | 426 kts | 226° |
| 2026-05-04 07:23 | 34.39336 | -95.31684 | 29407 ft | 427 kts | 226° |
| 2026-05-04 07:23 | 34.37049 | -95.33989 | 29107 ft | 428 kts | 226° |
| 2026-05-04 07:23 | 34.34750 | -95.36304 | 28770 ft | 429 kts | 226° |
| 2026-05-04 07:24 | 34.32452 | -95.38617 | 28481 ft | 430 kts | 226° |
| 2026-05-04 07:24 | 34.30147 | -95.40935 | 28192 ft | 431 kts | 226° |
| 2026-05-04 07:24 | 34.27841 | -95.43252 | 27915 ft | 431 kts | 226° |
| 2026-05-04 07:24 | 34.25528 | -95.45575 | 27635 ft | 432 kts | 226° |
| 2026-05-04 07:25 | 34.23220 | -95.47891 | 27338 ft | 432 kts | 225° |
| 2026-05-04 07:26 | 34.07598 | -95.63520 | 24269 ft | 404 kts | 224° |
| 2026-05-04 07:27 | 34.05437 | -95.65678 | 23859 ft | 402 kts | 223° |
| 2026-05-04 07:27 | 34.03311 | -95.67800 | 23433 ft | 400 kts | 223° |
| 2026-05-04 07:27 | 34.01171 | -95.69933 | 22954 ft | 398 kts | 223° |
| 2026-05-04 07:27 | 33.99036 | -95.72060 | 22472 ft | 397 kts | 223° |
| 2026-05-04 07:28 | 33.96910 | -95.74176 | 22009 ft | 395 kts | 223° |
| 2026-05-04 07:28 | 33.94791 | -95.76288 | 21543 ft | 393 kts | 223° |
| 2026-05-04 07:28 | 33.92721 | -95.78359 | 21099 ft | 391 kts | 223° |
| 2026-05-04 07:28 | 33.90634 | -95.80450 | 20657 ft | 388 kts | 222° |
| 2026-05-04 07:29 | 33.88567 | -95.82521 | 20217 ft | 386 kts | 222° |
| 2026-05-04 07:29 | 33.86503 | -95.84585 | 19789 ft | 384 kts | 222° |
| 2026-05-04 07:29 | 33.84450 | -95.86635 | 19360 ft | 382 kts | 222° |
| 2026-05-04 07:29 | 33.82415 | -95.88665 | 18941 ft | 379 kts | 221° |
| 2026-05-04 07:30 | 33.80381 | -95.90676 | 18511 ft | 377 kts | 221° |
| 2026-05-04 07:30 | 33.78355 | -95.92674 | 18068 ft | 375 kts | 221° |
| 2026-05-04 07:30 | 33.76340 | -95.94659 | 17598 ft | 373 kts | 221° |
| 2026-05-04 07:30 | 33.74336 | -95.96633 | 17138 ft | 371 kts | 221° |
| 2026-05-04 07:31 | 33.72342 | -95.98596 | 16681 ft | 369 kts | 221° |
| 2026-05-04 07:31 | 33.70386 | -96.00522 | 16224 ft | 366 kts | 221° |
| 2026-05-04 07:33 | 33.57196 | -96.13486 | 13158 ft | 337 kts | 221° |
| 2026-05-04 07:33 | 33.56003 | -96.14656 | 13043 ft | 330 kts | 221° |
| 2026-05-04 07:33 | 33.54264 | -96.16359 | 13000 ft | 315 kts | 221° |
| 2026-05-04 07:33 | 33.52607 | -96.17982 | 12977 ft | 301 kts | 221° |
| 2026-05-04 07:34 | 33.51023 | -96.19534 | 12992 ft | 289 kts | 221° |
| 2026-05-04 07:34 | 33.49464 | -96.21063 | 13007 ft | 290 kts | 221° |
| 2026-05-04 07:34 | 33.47906 | -96.22588 | 13012 ft | 289 kts | 221° |
| 2026-05-04 07:34 | 33.46345 | -96.24115 | 13011 ft | 289 kts | 221° |
| 2026-05-04 07:35 | 33.44788 | -96.25640 | 13009 ft | 289 kts | 222° |
| 2026-05-04 07:35 | 33.43363 | -96.27327 | 13005 ft | 287 kts | 230° |
| 2026-05-04 07:35 | 33.42069 | -96.29144 | 13003 ft | 287 kts | 232° |
| 2026-05-04 07:35 | 33.40805 | -96.30957 | 13004 ft | 287 kts | 232° |
| 2026-05-04 07:36 | 33.39518 | -96.32787 | 12999 ft | 287 kts | 231° |
| 2026-05-04 07:36 | 33.38220 | -96.34607 | 13000 ft | 287 kts | 231° |
| 2026-05-04 07:38 | 33.30914 | -96.48458 | 12853 ft | 287 kts | 252° |
| 2026-05-04 07:38 | 33.30271 | -96.50778 | 12053 ft | 296 kts | 251° |
| 2026-05-04 07:38 | 33.29615 | -96.53126 | 11383 ft | 297 kts | 251° |
| 2026-05-04 07:38 | 33.28969 | -96.55428 | 10999 ft | 288 kts | 252° |
| 2026-05-04 07:39 | 33.28562 | -96.57728 | 10670 ft | 280 kts | 265° |
| 2026-05-04 07:39 | 33.28469 | -96.59984 | 10379 ft | 272 kts | 266° |
| 2026-05-04 07:39 | 33.28393 | -96.62221 | 10130 ft | 268 kts | 266° |
| 2026-05-04 07:39 | 33.28312 | -96.64457 | 9887 ft | 271 kts | 266° |
| 2026-05-04 07:40 | 33.28221 | -96.66719 | 9613 ft | 274 kts | 266° |
| 2026-05-04 07:40 | 33.28125 | -96.68996 | 9364 ft | 274 kts | 265° |
| 2026-05-04 07:40 | 33.28025 | -96.71261 | 9129 ft | 271 kts | 265° |
| 2026-05-04 07:40 | 33.27926 | -96.73456 | 8896 ft | 260 kts | 265° |
| 2026-05-04 07:41 | 33.27830 | -96.75561 | 8707 ft | 247 kts | 265° |
| 2026-05-04 07:41 | 33.27736 | -96.77578 | 8529 ft | 239 kts | 265° |
| 2026-05-04 07:41 | 33.27644 | -96.79528 | 8366 ft | 238 kts | 265° |
| 2026-05-04 07:41 | 33.27549 | -96.81526 | 8203 ft | 243 kts | 265° |
| 2026-05-04 07:42 | 33.27452 | -96.83558 | 8042 ft | 246 kts | 265° |
| 2026-05-04 07:42 | 33.27296 | -96.85579 | 7952 ft | 241 kts | 261° |
| 2026-05-04 07:42 | 33.26760 | -96.87459 | 7882 ft | 243 kts | 239° |
| 2026-05-04 07:42 | 33.25923 | -96.89100 | 7928 ft | 225 kts | 240° |
| 2026-05-04 07:43 | 33.25147 | -96.90740 | 7774 ft | 229 kts | 241° |
| 2026-05-04 07:43 | 33.24383 | -96.92424 | 7589 ft | 232 kts | 242° |
| 2026-05-04 07:43 | 33.23659 | -96.94139 | 7400 ft | 230 kts | 250° |
| 2026-05-04 07:43 | 33.23540 | -96.96008 | 7219 ft | 226 kts | 274° |
| 2026-05-04 07:44 | 33.23715 | -96.97856 | 7031 ft | 223 kts | 274° |
| 2026-05-04 07:44 | 33.23622 | -96.99697 | 6804 ft | 224 kts | 256° |
| 2026-05-04 07:44 | 33.23049 | -97.01400 | 6566 ft | 220 kts | 230° |
| 2026-05-04 07:44 | 33.21746 | -97.02318 | 6406 ft | 225 kts | 194° |
| 2026-05-04 07:45 | 33.20193 | -97.02600 | 6124 ft | 230 kts | 193° |
| 2026-05-04 07:45 | 33.18618 | -97.02850 | 5814 ft | 226 kts | 187° |
| 2026-05-04 07:45 | 33.17074 | -97.02882 | 5522 ft | 220 kts | 184° |
| 2026-05-04 07:45 | 33.15568 | -97.02872 | 5240 ft | 213 kts | 185° |
| 2026-05-04 07:46 | 33.14120 | -97.02874 | 4967 ft | 202 kts | 185° |
| 2026-05-04 07:46 | 33.12748 | -97.02880 | 4677 ft | 191 kts | 185° |
| 2026-05-04 07:46 | 33.11454 | -97.02887 | 4447 ft | 183 kts | 186° |
| 2026-05-04 07:46 | 33.10206 | -97.02894 | 4215 ft | 180 kts | 186° |
| 2026-05-04 07:47 | 33.08950 | -97.02902 | 3975 ft | 182 kts | 186° |
| 2026-05-04 07:47 | 33.07721 | -97.02907 | 3745 ft | 174 kts | 185° |
| 2026-05-04 07:47 | 33.06531 | -97.02911 | 3507 ft | 163 kts | 186° |
| 2026-05-04 07:49 | 32.99556 | -97.02946 | 2181 ft | 137 kts | 185° |
| 2026-05-04 07:49 | 32.98603 | -97.02950 | 2006 ft | 136 kts | 185° |
| 2026-05-04 07:49 | 32.97672 | -97.02954 | 1815 ft | 133 kts | 185° |
| 2026-05-04 07:50 | 32.96722 | -97.02959 | 1654 ft | 141 kts | 184° |
| 2026-05-04 07:50 | 32.95745 | -97.02955 | 1468 ft | 139 kts | 182° |
| 2026-05-04 07:50 | 32.94754 | -97.02968 | 1288 ft | 144 kts | 180° |
| 2026-05-04 07:50 | 32.93730 | -97.02968 | 1098 ft | 149 kts | 181° |
| 2026-05-04 07:51 | 32.92703 | -97.02982 | 852 ft | 148 kts | 179° |
| 2026-05-04 07:51 | 32.91683 | -97.02983 | 641 ft | 144 kts | 180° |
| 2026-05-04 07:51 | 32.90732 | -97.02992 | 577 ft | 125 kts | 179° |
| 2026-05-04 07:51 | 32.89963 | -97.02998 | 573 ft | 93 kts | 180° |
| 2026-05-04 07:52 | 32.89523 | -97.03002 | 577 ft | 38 kts | 180° |
| 2026-05-04 07:52 | 32.89408 | -97.03042 | 577 ft | 16 kts | 241° |
| 2026-05-04 07:52 | 32.89397 | -97.03207 | 577 ft | 21 kts | 269° |
| 2026-05-04 07:52 | 32.89395 | -97.03378 | 585 ft | 20 kts | 271° |
| 2026-05-04 07:53 | 32.89396 | -97.03541 | 585 ft | 15 kts | 270° |
| 2026-05-04 07:54 | 32.89204 | -97.03557 | 583 ft | 0 kts | 254° |